createdAt,value
2023-04-20T00:00:32.652Z,6.45
2023-04-20T00:03:02.080Z,6.30
2023-04-20T00:05:32.300Z,6.75
2023-04-20T00:08:01.640Z,6.47
2023-04-20T00:10:30.421Z,6.05
2023-04-20T00:13:00.583Z,6.03
2023-04-20T00:15:30.371Z,5.55
2023-04-20T00:17:59.009Z,6.50
2023-04-20T00:20:27.906Z,6.63
2023-04-20T00:22:56.707Z,6.28
2023-04-20T00:25:25.682Z,7.20
2023-04-20T00:27:54.245Z,6.53
2023-04-20T00:30:24.550Z,6.35
2023-04-20T00:32:53.241Z,5.95
2023-04-20T00:35:21.660Z,6.50
2023-04-20T00:37:52.427Z,6.18
2023-04-20T00:40:21.207Z,6.57
2023-04-20T00:42:50.178Z,6.47
2023-04-20T00:45:18.717Z,6.75
2023-04-20T00:47:49.331Z,6.05
2023-04-20T00:50:18.584Z,6.57
2023-04-20T00:52:48.257Z,5.93
2023-04-20T00:55:16.962Z,6.72
2023-04-20T00:57:46.968Z,6.60
2023-04-20T01:00:15.800Z,6.82
2023-04-20T01:02:44.383Z,7.00
2023-04-20T01:05:15.353Z,7.57
2023-04-20T01:07:43.866Z,6.25
2023-04-20T01:10:12.401Z,5.85
2023-04-20T01:12:42.326Z,6.47
2023-04-20T01:15:12.799Z,6.35
2023-04-20T01:17:42.030Z,7.75
2023-04-20T01:20:13.115Z,6.55
2023-04-20T01:22:47.998Z,6.45
2023-04-20T01:25:17.368Z,6.30
2023-04-20T01:27:46.274Z,6.20
2023-04-20T01:30:15.354Z,5.68
2023-04-20T01:32:45.337Z,6.55
2023-04-20T01:35:14.230Z,6.07
2023-04-20T01:37:43.354Z,5.90
2023-04-20T01:40:16.383Z,6.00
2023-04-20T01:42:45.219Z,5.88
2023-04-20T01:45:14.788Z,5.88
2023-04-20T01:47:43.874Z,5.95
2023-04-20T01:50:12.769Z,5.72
2023-04-20T01:52:43.532Z,5.45
2023-04-20T01:55:13.737Z,5.75
2023-04-20T01:57:44.821Z,5.60
2023-04-20T02:00:16.118Z,5.80
2023-04-20T02:02:46.148Z,5.45
2023-04-20T02:05:14.924Z,5.53
2023-04-20T02:07:43.391Z,5.53
2023-04-20T02:10:14.016Z,5.60
2023-04-20T02:12:47.267Z,5.82
2023-04-20T02:15:16.165Z,6.03
2023-04-20T02:17:45.614Z,6.13
2023-04-20T02:20:14.858Z,5.40
2023-04-20T02:22:44.585Z,5.65
2023-04-20T02:25:15.561Z,5.50
2023-04-20T02:27:45.080Z,5.63
2023-04-20T02:30:14.504Z,5.05
2023-04-20T02:32:44.530Z,5.45
2023-04-20T02:35:13.292Z,4.72
2023-04-20T02:37:44.861Z,5.00
2023-04-20T02:40:16.143Z,5.15
2023-04-20T02:42:44.725Z,5.05
2023-04-20T02:45:13.950Z,6.25
2023-04-20T02:47:45.853Z,5.47
2023-04-20T02:50:16.162Z,5.18
2023-04-20T02:53:05.244Z,5.82
2023-04-20T02:55:37.856Z,5.65
2023-04-20T02:58:17.951Z,5.85
2023-04-20T03:01:16.880Z,4.70
2023-04-20T03:03:50.924Z,5.53
2023-04-20T03:06:20.148Z,5.45
2023-04-20T03:08:54.502Z,4.93
2023-04-20T03:11:51.819Z,5.40
2023-04-20T03:14:41.539Z,5.07
2023-04-20T03:17:10.638Z,4.90
2023-04-20T03:19:39.474Z,4.93
2023-04-20T03:22:08.245Z,4.60
2023-04-20T03:24:39.019Z,5.00
2023-04-20T03:27:19.953Z,5.18
2023-04-20T03:30:12.466Z,5.45
2023-04-20T03:32:41.662Z,5.25
2023-04-20T03:35:13.658Z,4.38
2023-04-20T03:37:42.610Z,4.82
2023-04-20T03:40:13.015Z,5.30
2023-04-20T03:42:43.796Z,5.47
2023-04-20T03:45:13.931Z,4.43
2023-04-20T03:47:44.393Z,4.80
2023-04-20T03:50:13.354Z,5.00
2023-04-20T03:52:42.610Z,5.15
2023-04-20T03:55:15.060Z,4.88
2023-04-20T03:57:51.118Z,4.70
2023-04-20T04:00:20.702Z,4.50
2023-04-20T04:02:49.509Z,5.22
2023-04-20T04:05:26.672Z,5.20
2023-04-20T04:07:57.865Z,5.22
2023-04-20T04:10:26.616Z,5.50
2023-04-20T04:12:57.302Z,4.97
2023-04-20T04:15:26.440Z,4.93
2023-04-20T04:18:13.830Z,4.72
2023-04-20T04:20:44.020Z,4.65
2023-04-20T04:23:15.147Z,5.28
2023-04-20T04:25:52.877Z,4.63
2023-04-20T04:28:28.126Z,5.25
2023-04-20T04:31:07.347Z,5.05
2023-04-20T04:33:37.690Z,4.63
2023-04-20T04:36:12.068Z,4.18
2023-04-20T04:38:41.366Z,5.00
2023-04-20T04:41:15.900Z,4.55
2023-04-20T04:43:48.245Z,4.40
2023-04-20T04:46:29.081Z,5.10
2023-04-20T04:49:01.331Z,4.60
2023-04-20T04:51:31.963Z,4.45
2023-04-20T04:54:01.404Z,4.10
2023-04-20T04:56:29.978Z,4.63
2023-04-20T04:59:00.553Z,4.45
2023-04-20T05:01:29.213Z,4.30
2023-04-20T05:03:57.712Z,4.43
2023-04-20T05:06:26.667Z,6.32
2023-04-20T05:08:55.986Z,4.35
2023-04-20T05:11:25.881Z,4.32
2023-04-20T05:13:54.985Z,4.25
2023-04-20T05:16:25.298Z,4.70
2023-04-20T05:18:57.122Z,4.40
2023-04-20T05:21:26.359Z,3.92
2023-04-20T05:23:55.688Z,4.63
2023-04-20T05:26:24.644Z,4.18
2023-04-20T05:28:53.470Z,4.50
2023-04-20T05:31:22.082Z,4.13
2023-04-20T05:33:52.160Z,4.40
2023-04-20T05:36:22.316Z,4.13
2023-04-20T05:38:50.812Z,4.38
2023-04-20T05:41:19.992Z,4.85
2023-04-20T05:43:48.606Z,4.10
2023-04-20T05:46:17.794Z,4.60
2023-04-20T05:48:46.862Z,5.20
2023-04-20T05:51:17.504Z,4.60
2023-04-20T05:53:46.854Z,5.15
2023-04-20T05:56:16.170Z,4.83
2023-04-20T05:58:45.658Z,4.63
2023-04-20T06:01:14.584Z,4.45
2023-04-20T06:03:43.574Z,4.15
2023-04-20T06:06:14.064Z,4.05
2023-04-20T06:08:47.560Z,3.88
2023-04-20T06:11:19.290Z,4.28
2023-04-20T06:13:48.092Z,3.95
2023-04-20T06:16:17.743Z,3.50
2023-04-20T06:18:47.574Z,4.28
2023-04-20T06:21:17.690Z,4.07
2023-04-20T06:23:48.135Z,4.03
2023-04-20T06:26:17.415Z,3.60
2023-04-20T06:28:48.491Z,3.20
2023-04-20T06:31:17.880Z,4.00
2023-04-20T06:33:46.759Z,3.90
2023-04-20T06:36:18.033Z,3.60
2023-04-20T06:38:48.675Z,3.55
2023-04-20T06:41:17.997Z,3.60
2023-04-20T06:43:47.646Z,4.43
2023-04-20T06:46:17.166Z,3.85
2023-04-20T06:48:46.714Z,3.75
2023-04-20T06:51:15.891Z,3.97
2023-04-20T06:53:45.047Z,3.47
2023-04-20T06:56:15.874Z,3.97
2023-04-20T06:58:44.683Z,3.08
2023-04-20T07:01:13.751Z,3.25
2023-04-20T07:03:42.569Z,3.97
2023-04-20T07:06:12.095Z,4.13
2023-04-20T07:08:41.402Z,4.38
2023-04-20T07:11:10.491Z,3.83
2023-04-20T07:13:40.850Z,4.03
2023-04-20T07:16:11.465Z,3.42
2023-04-20T07:18:40.233Z,3.65
2023-04-20T07:21:09.289Z,3.30
2023-04-20T07:23:38.447Z,3.55
2023-04-20T07:26:08.720Z,3.90
2023-04-20T07:28:38.003Z,3.35
2023-04-20T07:31:08.322Z,3.13
2023-04-20T07:33:38.035Z,3.47
2023-04-20T07:36:07.700Z,3.05
2023-04-20T07:38:36.990Z,3.28
2023-04-20T07:41:05.788Z,3.50
2023-04-20T07:43:35.221Z,2.90
2023-04-20T08:02:40.601Z,11.20
2023-04-20T08:05:10.546Z,12.75
2023-04-20T08:07:39.850Z,8.40
2023-04-20T08:10:10.649Z,17.17
2023-04-20T08:12:40.293Z,7.95
2023-04-20T08:15:10.629Z,5.45
2023-04-20T08:17:40.773Z,12.48
2023-04-20T08:20:10.817Z,2.60
2023-04-20T08:22:40.270Z,2.60
2023-04-20T08:25:09.592Z,3.10
2023-04-20T08:27:38.233Z,2.95
2023-04-20T08:30:08.944Z,2.50
2023-04-20T08:32:37.978Z,2.95
2023-04-20T08:35:09.002Z,2.88
2023-04-20T08:37:38.937Z,3.40
2023-04-20T08:40:09.079Z,2.58
2023-04-20T08:42:37.751Z,2.78
2023-04-20T08:45:07.450Z,2.83
2023-04-20T08:47:37.119Z,2.17
2023-04-20T08:50:08.464Z,2.28
2023-04-20T08:52:38.873Z,2.47
2023-04-20T08:55:09.250Z,2.83
2023-04-20T08:57:37.914Z,2.67
2023-04-20T09:00:12.926Z,13.88
2023-04-20T09:02:52.924Z,2.42
2023-04-20T09:05:30.926Z,1.75
2023-04-20T09:08:01.361Z,2.90
2023-04-20T09:10:42.372Z,3.45
2023-04-20T09:13:11.474Z,2.30
2023-04-20T09:15:40.472Z,1.98
2023-04-20T09:18:15.850Z,1.92
2023-04-20T09:20:47.003Z,2.60
2023-04-20T09:23:17.443Z,2.63
2023-04-20T09:25:48.880Z,2.58
2023-04-20T09:28:18.414Z,2.80
2023-04-20T09:30:48.718Z,2.45
2023-04-20T09:33:19.336Z,2.50
2023-04-20T09:35:49.357Z,2.72
2023-04-20T09:38:18.471Z,3.03
2023-04-20T09:40:47.255Z,2.40
2023-04-20T09:43:21.203Z,2.92
2023-04-20T09:45:50.635Z,2.45
2023-04-20T09:48:22.354Z,2.92
2023-04-20T09:50:52.476Z,1.92
2023-04-20T09:53:21.606Z,2.70
2023-04-20T09:55:51.446Z,2.30
2023-04-20T09:58:21.595Z,2.40
2023-04-20T10:00:51.313Z,2.25
2023-04-20T10:03:22.105Z,2.83
2023-04-20T10:05:55.843Z,2.40
2023-04-20T10:08:25.626Z,2.33
2023-04-20T10:10:54.765Z,1.80
2023-04-20T10:13:36.529Z,2.08
2023-04-20T10:16:05.569Z,1.70
2023-04-20T10:18:34.407Z,2.05
2023-04-20T10:21:09.813Z,1.83
2023-04-20T10:23:49.398Z,2.40
2023-04-20T10:26:18.309Z,2.28
2023-04-20T10:28:47.216Z,1.75
2023-04-20T10:31:17.280Z,2.28
2023-04-20T10:33:53.752Z,2.22
2023-04-20T10:36:29.675Z,1.98
2023-04-20T10:38:59.279Z,1.90
2023-04-20T10:41:28.259Z,2.15
2023-04-20T10:43:56.851Z,1.80
2023-04-20T10:46:26.421Z,2.40
2023-04-20T10:48:57.237Z,2.20
2023-04-20T10:51:27.389Z,2.75
2023-04-20T10:54:00.792Z,1.90
2023-04-20T10:56:29.589Z,1.67
2023-04-20T10:59:08.543Z,1.60
2023-04-20T11:01:37.373Z,1.98
2023-04-20T11:04:07.624Z,1.90
2023-04-20T11:06:39.638Z,1.83
2023-04-20T11:09:20.276Z,1.55
2023-04-20T11:12:00.440Z,1.98
2023-04-20T11:14:29.622Z,1.92
2023-04-20T11:16:58.542Z,1.95
2023-04-20T11:19:29.228Z,1.80
2023-04-20T11:21:59.455Z,2.15
2023-04-20T11:24:30.959Z,2.22
2023-04-20T11:27:00.343Z,1.65
2023-04-20T11:29:34.374Z,8.88
2023-04-20T11:32:05.738Z,4.50
2023-04-20T11:34:36.918Z,1.70
2023-04-20T11:37:10.571Z,1.92
2023-04-20T11:39:39.910Z,1.65
2023-04-20T11:42:08.868Z,1.75
2023-04-20T11:44:37.746Z,1.77
2023-04-20T11:47:06.778Z,1.85
2023-04-20T11:49:35.458Z,1.92
2023-04-20T11:52:04.471Z,2.70
2023-04-20T11:54:35.305Z,2.33
2023-04-20T11:57:04.750Z,1.73
2023-04-20T11:59:33.619Z,2.20
2023-04-20T12:02:04.610Z,1.80
2023-04-20T12:04:34.809Z,1.83
2023-04-20T12:07:04.211Z,2.25
2023-04-20T12:09:37.705Z,1.73
2023-04-20T12:12:07.451Z,1.63
2023-04-20T12:14:36.645Z,1.63
2023-04-20T12:17:06.389Z,1.73
2023-04-20T12:19:35.993Z,2.00
2023-04-20T12:22:04.808Z,1.60
2023-04-20T12:24:34.801Z,2.03
2023-04-20T12:27:04.115Z,1.85
2023-04-20T12:29:33.327Z,1.98
2023-04-20T12:32:02.331Z,2.10
2023-04-20T12:34:33.282Z,1.85
2023-04-20T12:37:02.281Z,2.08
2023-04-20T12:39:31.721Z,1.90
2023-04-20T12:42:02.589Z,2.10
2023-04-20T12:44:31.919Z,1.58
2023-04-20T12:47:00.454Z,1.67
2023-04-20T12:49:29.176Z,2.03
2023-04-20T12:51:58.455Z,1.70
2023-04-20T12:54:27.458Z,1.60
2023-04-20T12:56:56.062Z,1.70
2023-04-20T12:59:26.163Z,1.65
2023-04-20T13:01:54.970Z,1.73
2023-04-20T13:04:26.590Z,2.47
2023-04-20T13:06:56.221Z,1.85
2023-04-20T13:09:27.306Z,1.58
2023-04-20T13:11:56.302Z,1.60
2023-04-20T13:14:26.509Z,1.98
2023-04-20T13:16:55.770Z,2.05
2023-04-20T13:19:24.753Z,2.13
2023-04-20T13:21:53.494Z,1.88
2023-04-20T13:24:23.093Z,2.10
2023-04-20T13:26:56.724Z,2.45
2023-04-20T13:29:27.186Z,1.92
2023-04-20T13:31:56.080Z,1.83
2023-04-20T13:34:25.071Z,2.03
2023-04-20T13:36:53.690Z,1.85
2023-04-20T13:39:22.917Z,2.10
2023-04-20T13:41:51.801Z,1.75
2023-04-20T13:44:21.265Z,2.17
2023-04-20T13:46:51.749Z,1.77
2023-04-20T13:49:22.957Z,2.47
2023-04-20T13:51:51.703Z,1.90
2023-04-20T13:54:21.074Z,2.08
2023-04-20T13:56:50.175Z,2.70
2023-04-20T13:59:19.010Z,1.92
2023-04-20T14:01:48.170Z,1.73
2023-04-20T14:04:18.917Z,2.10
2023-04-20T14:06:48.303Z,2.40
2023-04-20T14:09:17.098Z,2.05
2023-04-20T14:11:46.402Z,2.15
2023-04-20T14:14:15.361Z,2.05
2023-04-20T14:16:45.727Z,2.20
2023-04-20T14:19:14.966Z,2.15
2023-04-20T14:21:46.941Z,1.90
2023-04-20T14:26:45.434Z,1.55
2023-04-20T14:29:14.628Z,1.95
2023-04-20T14:31:43.791Z,1.95
2023-04-20T14:34:13.478Z,2.38
2023-04-20T14:36:42.455Z,1.88
2023-04-20T14:39:14.245Z,2.20
2023-04-20T14:41:43.045Z,2.00
2023-04-20T14:44:11.696Z,1.92
2023-04-20T14:46:42.410Z,2.78
2023-04-20T14:49:11.816Z,1.75
2023-04-20T14:51:41.660Z,2.17
2023-04-20T14:54:10.482Z,2.58
2023-04-20T14:56:40.478Z,2.30
2023-04-20T14:59:09.314Z,1.88
2023-04-20T15:01:40.070Z,2.50
2023-04-20T15:04:16.017Z,2.22
2023-04-20T15:06:45.927Z,2.10
2023-04-20T15:09:16.262Z,2.30
2023-04-20T15:11:46.526Z,2.40
2023-04-20T15:14:15.464Z,2.40
2023-04-20T15:16:44.469Z,2.70
2023-04-20T15:19:14.548Z,2.33
2023-04-20T15:21:44.552Z,2.22
2023-04-20T15:24:13.932Z,3.20
2023-04-20T15:26:42.866Z,2.30
2023-04-20T15:29:13.057Z,2.20
2023-04-20T15:31:43.548Z,2.35
2023-04-20T15:34:15.753Z,2.47
2023-04-20T15:36:45.510Z,2.67
2023-04-20T15:39:15.179Z,2.72
2023-04-20T15:41:44.439Z,2.83
2023-04-20T15:44:14.888Z,2.92
2023-04-20T15:46:43.996Z,2.60
2023-04-20T15:49:13.077Z,3.50
2023-04-20T15:51:43.269Z,7.85
2023-04-20T15:54:12.855Z,5.57
2023-04-20T15:56:41.601Z,5.90
2023-04-20T15:59:10.988Z,5.78
2023-04-20T16:01:41.023Z,5.18
2023-04-20T16:04:09.739Z,3.83
2023-04-20T16:06:38.459Z,3.30
2023-04-20T16:09:07.341Z,3.88
2023-04-20T16:11:36.419Z,3.20
2023-04-20T16:14:05.105Z,3.80
2023-04-20T16:16:34.333Z,2.88
2023-04-20T16:19:04.461Z,3.05
2023-04-20T16:21:32.996Z,2.97
2023-04-20T16:24:01.848Z,2.67
2023-04-20T16:26:30.920Z,3.05
2023-04-20T16:29:00.194Z,2.72
2023-04-20T16:31:29.733Z,2.90
2023-04-20T16:33:59.096Z,3.25
2023-04-20T16:36:29.239Z,3.13
2023-04-20T16:38:58.413Z,3.28
2023-04-20T16:41:27.971Z,3.50
2023-04-20T16:43:56.663Z,4.20
2023-04-20T16:46:29.163Z,4.13
2023-04-20T16:48:57.897Z,3.70
2023-04-20T16:51:30.537Z,3.97
2023-04-20T16:54:00.178Z,4.85
2023-04-20T16:56:28.991Z,5.07
2023-04-20T16:58:57.783Z,4.82
2023-04-20T17:01:27.042Z,4.20
2023-04-20T17:03:56.352Z,4.72
2023-04-20T17:06:25.513Z,6.90
2023-04-20T17:08:57.680Z,6.60
2023-04-20T17:11:26.701Z,4.30
2023-04-20T17:13:55.660Z,4.40
2023-04-20T17:16:24.880Z,3.42
2023-04-20T17:18:54.009Z,3.05
2023-04-20T17:21:23.028Z,2.83
2023-04-20T17:23:51.503Z,3.10
2023-04-20T17:26:22.557Z,2.47
2023-04-20T17:28:51.275Z,2.75
2023-04-20T17:31:20.168Z,2.50
2023-04-20T17:33:49.446Z,2.83
2023-04-20T17:36:18.818Z,3.45
2023-04-20T17:38:47.422Z,3.00
2023-04-20T17:41:16.642Z,2.60
2023-04-20T17:43:46.854Z,2.42
2023-04-20T17:46:15.678Z,3.25
2023-04-20T17:48:45.064Z,4.05
2023-04-20T17:51:14.884Z,2.78
2023-04-20T17:53:43.717Z,2.90
2023-04-20T17:56:13.107Z,2.75
2023-04-20T17:58:41.975Z,3.15
2023-04-20T18:01:12.535Z,3.38
2023-04-20T18:03:41.541Z,2.78
2023-04-20T18:06:10.313Z,3.08
2023-04-20T18:08:39.054Z,2.90
2023-04-20T18:11:08.009Z,3.33
2023-04-20T18:13:37.199Z,3.47
2023-04-20T18:16:07.563Z,3.50
2023-04-20T18:18:37.564Z,3.38
2023-04-20T18:21:08.526Z,3.03
2023-04-20T18:23:37.573Z,3.17
2023-04-20T18:26:06.037Z,4.47
2023-04-20T18:28:34.572Z,3.63
2023-04-20T18:31:03.328Z,3.63
2023-04-20T18:33:32.368Z,3.45
2023-04-20T18:36:02.373Z,3.47
2023-04-20T18:38:31.113Z,3.42
2023-04-20T18:41:00.024Z,3.30
2023-04-20T18:43:28.747Z,3.30
2023-04-20T18:45:57.672Z,3.42
2023-04-20T18:48:26.455Z,3.40
2023-04-20T18:50:55.472Z,4.15
2023-04-20T18:53:26.681Z,3.70
2023-04-20T18:55:59.286Z,4.88
2023-04-20T19:00:57.209Z,3.70
2023-04-20T19:03:26.120Z,3.80
2023-04-20T19:05:55.059Z,3.65
2023-04-20T19:08:25.423Z,3.90
2023-04-20T19:10:56.633Z,4.43
2023-04-20T19:13:25.306Z,4.20
2023-04-20T19:15:57.810Z,4.10
2023-04-20T19:18:27.124Z,4.18
2023-04-20T19:20:56.228Z,4.15
2023-04-20T19:23:26.155Z,4.18
2023-04-20T19:25:55.723Z,4.15
2023-04-20T19:28:24.401Z,3.95
2023-04-20T19:30:53.193Z,4.03
2023-04-20T19:33:21.952Z,4.57
2023-04-20T19:35:51.686Z,3.90
2023-04-20T19:38:20.493Z,4.03
2023-04-20T19:40:50.643Z,3.63
2023-04-20T19:43:19.254Z,4.00
2023-04-20T19:45:47.893Z,4.05
2023-04-20T19:48:16.704Z,3.83
2023-04-20T19:50:45.274Z,3.63
2023-04-20T19:53:15.682Z,3.85
2023-04-20T19:55:44.600Z,4.00
2023-04-20T19:58:14.637Z,5.60
2023-04-20T20:00:45.101Z,3.55
2023-04-20T20:03:16.297Z,3.78
2023-04-20T20:05:45.271Z,3.85
2023-04-20T20:08:14.770Z,6.38
2023-04-20T20:10:43.752Z,5.50
2023-04-20T20:13:14.532Z,4.82
2023-04-20T20:15:44.719Z,6.55
2023-04-20T20:18:14.373Z,5.88
2023-04-20T20:20:43.256Z,7.47
2023-04-20T20:23:12.050Z,6.15
2023-04-20T20:25:41.155Z,5.15
2023-04-20T20:28:09.807Z,7.50
2023-04-20T20:30:42.016Z,9.32
2023-04-20T20:35:39.214Z,9.82
2023-04-20T20:38:08.103Z,14.20
2023-04-20T20:40:37.098Z,9.98
2023-04-20T20:43:05.527Z,11.30
2023-04-20T20:45:34.235Z,10.88
2023-04-20T20:48:04.366Z,8.93
2023-04-20T20:50:33.138Z,15.57
2023-04-20T20:53:01.610Z,9.20
2023-04-20T20:55:30.193Z,15.48
2023-04-20T20:57:58.728Z,10.02
2023-04-20T21:00:27.448Z,13.75
2023-04-20T21:02:57.417Z,8.65
2023-04-20T21:05:27.527Z,16.60
2023-04-20T21:07:56.286Z,8.73
2023-04-20T21:10:25.120Z,14.57
2023-04-20T21:12:53.530Z,9.90
2023-04-20T21:15:22.152Z,13.73
2023-04-20T21:17:50.597Z,13.40
2023-04-20T21:20:19.101Z,11.98
2023-04-20T21:22:49.575Z,11.63
2023-04-20T21:25:18.434Z,10.43
2023-04-20T21:27:47.005Z,11.25
2023-04-20T21:30:17.018Z,8.68
2023-04-20T21:32:45.961Z,9.35
2023-04-20T21:35:14.664Z,9.48
2023-04-20T21:37:44.271Z,11.05
2023-04-20T21:40:14.728Z,12.30
2023-04-20T21:42:43.431Z,13.15
2023-04-20T21:45:13.195Z,15.35
2023-04-20T21:47:42.192Z,10.75
2023-04-20T21:50:11.911Z,15.02
2023-04-20T21:52:41.097Z,10.65
2023-04-20T21:55:11.192Z,9.45
2023-04-20T21:57:41.420Z,11.05
2023-04-20T22:00:11.598Z,11.57
2023-04-20T22:02:48.748Z,10.57
2023-04-20T22:05:19.137Z,11.63
2023-04-20T22:07:48.036Z,11.80
2023-04-20T22:10:16.818Z,9.43
2023-04-20T22:12:46.851Z,13.88
2023-04-20T22:15:17.121Z,11.55
2023-04-20T22:17:46.706Z,12.45
2023-04-20T22:20:17.229Z,9.35
2023-04-20T22:22:46.039Z,11.60
2023-04-20T22:25:14.843Z,8.75
2023-04-20T22:27:43.661Z,10.90
2023-04-20T22:30:14.588Z,10.70
2023-04-20T22:32:43.192Z,9.88
2023-04-20T22:35:11.549Z,14.38
2023-04-20T22:37:40.068Z,10.65
2023-04-20T22:40:10.195Z,13.55
2023-04-20T22:42:38.774Z,11.25
2023-04-20T22:45:10.579Z,9.07
2023-04-20T22:47:40.717Z,11.88
2023-04-20T22:50:12.366Z,24.40
2023-04-20T22:52:41.828Z,11.52
2023-04-20T22:55:12.064Z,9.27
2023-04-20T22:57:40.536Z,14.48
2023-04-20T23:00:10.964Z,12.93
2023-04-20T23:02:41.570Z,15.52
2023-04-20T23:05:11.208Z,9.52
2023-04-20T23:07:40.022Z,14.75
2023-04-20T23:10:11.069Z,10.00
2023-04-20T23:12:40.054Z,11.73
2023-04-20T23:15:09.919Z,9.10
2023-04-20T23:17:40.481Z,10.60
2023-04-20T23:20:11.126Z,10.55
2023-04-20T23:22:39.574Z,11.45
2023-04-20T23:25:09.862Z,16.08
2023-04-20T23:27:38.678Z,10.63
2023-04-20T23:30:08.970Z,12.18
2023-04-20T23:32:38.166Z,13.10
2023-04-20T23:35:08.604Z,11.13
2023-04-20T23:37:37.045Z,12.80
2023-04-20T23:40:07.398Z,8.73
2023-04-20T23:42:37.632Z,14.88
2023-04-20T23:45:06.856Z,8.75
2023-04-20T23:47:35.534Z,14.35
2023-04-20T23:50:04.178Z,18.77
2023-04-20T23:52:33.964Z,18.70
2023-04-20T23:55:03.095Z,9.50
2023-04-20T23:57:32.801Z,19.77
